Revel Montgey Airfield

LFIR · Haute-Garonne, Occitanie, Frankreich

METAR-Geschichte LFIR · Revel Montgey Airfield

Unten siehst du die METARs der letzten paar Tage. Wähle ein Jahr, um ältere METARs ab dem Jahr 2007 zu durchsuchen.

21. April 2024

Uhrzeit Code Wetter Temp. Sichtweite Wolkendecke Wind METAR/SPECI
11:00
V
9 °C 10 km+ - 280° 280° 6 kt METAR LFCK 210900Z AUTO 28006KT 230V340 CAVOK 09/00 Q1021 NOSIG
10:30
V
8 °C 10 km+ - 290° 290° 6 kt METAR LFCK 210830Z AUTO 29006KT 270V330 CAVOK 08/00 Q1021 NOSIG
10:00
V
6 °C 10 km+ - 290° 290° 5 kt METAR LFCK 210800Z AUTO 29005KT 260V320 CAVOK 06/M00 Q1021 NOSIG
09:30
V
5 °C 10 km+ - 290° 290° 4 kt METAR LFCK 210730Z AUTO 29004KT 260V320 CAVOK 05/00 Q1021 NOSIG
09:00
V
4 °C 10 km+ - Var Var 2 kt METAR LFCK 210700Z AUTO VRB02KT CAVOK 04/M00 Q1021 NOSIG
08:30
V
3 °C 10 km+ - 360° 360° 0 kt METAR LFCK 210630Z AUTO 00000KT CAVOK 03/00 Q1021 NOSIG
08:00
V
2 °C 10 km+ - 180° 180° 3 kt METAR LFCK 210600Z AUTO 18003KT CAVOK 02/M00 Q1021 NOSIG
07:30
V
0 °C 10 km+ - 040° 040° 3 kt METAR LFCK 210530Z AUTO 04003KT CAVOK M00/M02 Q1021
07:00
V
-1 °C 10 km+ - 050° 050° 2 kt METAR LFCK 210500Z AUTO 05002KT CAVOK M01/M03 Q1020
06:30
V
0 °C 10 km+ - 240° 240° 3 kt METAR LFCK 210430Z AUTO 24003KT CAVOK M00/M02 Q1020
06:00
V
0 °C 10 km+ - 240° 240° 2 kt METAR LFCK 210400Z AUTO 24002KT CAVOK 00/M01 Q1020
05:30
V
1 °C 10 km+ - 350° 350° 2 kt METAR LFCK 210330Z AUTO 35002KT CAVOK 01/M01 Q1020
05:00
V
1 °C 10 km+ - Var Var 2 kt METAR LFCK 210300Z AUTO VRB02KT CAVOK 01/M01 Q1020
04:30
V
1 °C 10 km+ - Var Var 1 kt METAR LFCK 210230Z AUTO VRB01KT CAVOK 01/M02 Q1020
04:00
V
3 °C 10 km+ - 070° 070° 4 kt METAR LFCK 210200Z AUTO 07004KT CAVOK 03/M02 Q1020
03:30
V
4 °C 10 km+ - Var Var 1 kt METAR LFCK 210130Z AUTO VRB01KT CAVOK 04/M01 Q1021
03:00
V
3 °C 10 km+ - Var Var 1 kt METAR LFCK 210100Z AUTO VRB01KT CAVOK 03/M01 Q1021
02:30
V
3 °C 10 km+ - Var Var 2 kt METAR LFCK 210030Z AUTO VRB02KT CAVOK 03/M01 Q1021
02:00
V
4 °C 10 km+ - 050° 050° 4 kt METAR LFCK 210000Z AUTO 05004KT CAVOK 04/M01 Q1021
01:30
V
5 °C 10 km+ - 060° 060° 3 kt METAR LFCK 202330Z AUTO 06003KT CAVOK 05/M01 Q1021
01:00
V
7 °C 10 km+ - 360° 360° 0 kt METAR LFCK 202300Z AUTO 00000KT CAVOK 07/M00 Q1021
00:30
V
6 °C 10 km+ - 240° 240° 3 kt METAR LFCK 202230Z AUTO 24003KT CAVOK 06/M00 Q1021
00:00
V
7 °C 10 km+ - Var Var 2 kt METAR LFCK 202200Z AUTO VRB02KT CAVOK 07/00 Q1021

20. April 2024

Uhrzeit Code Wetter Temp. Sichtweite Wolkendecke Wind METAR/SPECI
23:30
V
8 °C 10 km+ - 280° 280° 3 kt METAR LFCK 202130Z AUTO 28003KT CAVOK 08/00 Q1021
23:00
V
9 °C 10 km+ - 280° 280° 4 kt METAR LFCK 202100Z AUTO 28004KT CAVOK 09/00 Q1021 NOSIG
22:30
V
10 °C 10 km+ - 290° 290° 4 kt METAR LFCK 202030Z AUTO 29004KT CAVOK 10/M01 Q1021 NOSIG
22:00
V
10 °C 10 km+ - Var Var 3 kt METAR LFCK 202000Z AUTO VRB03KT CAVOK 10/M01 Q1020 NOSIG
21:30
V
11 °C 10 km+ - 350° 350° 7 kt METAR LFCK 201930Z AUTO 35007KT CAVOK 11/M01 Q1020 NOSIG
21:00
V
11 °C 10 km+ - 330° 330° 8 kt METAR LFCK 201900Z AUTO 33008KT CAVOK 11/M00 Q1020 NOSIG
20:30
V
13 °C 10 km+ - 330° 330° 8 kt METAR LFCK 201830Z AUTO 33008KT CAVOK 13/M00 Q1019 NOSIG
20:00
V
15 °C 10 km+ - 320° 320° 11 kt METAR LFCK 201800Z AUTO 32011KT CAVOK 15/M01 Q1019 NOSIG
19:30
V
16 °C 10 km+ - 320° 320° 11 kt METAR LFCK 201730Z AUTO 32011KT CAVOK 16/M01 Q1019 NOSIG
19:00
V
16 °C 10 km+ - 330° 330° 13 kt METAR LFCK 201700Z AUTO 33013KT CAVOK 16/M00 Q1019 NOSIG
18:30
V
17 °C 10 km+ - 340° 340° 14 kt METAR LFCK 201630Z AUTO 34014KT 300V020 CAVOK 17/M01 Q1019 NOSIG
18:00
V
17 °C 10 km+ - 340° 340° 15 kt METAR LFCK 201600Z AUTO 34015KT CAVOK 17/M00 Q1019 NOSIG
17:30
V
17 °C 10 km+ - 330° 330° 13 kt METAR LFCK 201530Z AUTO 33013KT 300V360 CAVOK 17/01 Q1019 NOSIG
17:00
V
17 °C 10 km+ - 330° 330° 15 kt METAR LFCK 201500Z AUTO 33015KT CAVOK 17/03 Q1019 NOSIG
16:30
V
17 °C 10 km+ - 320° 320° 14 kt METAR LFCK 201430Z AUTO 32014KT 290V360 CAVOK 17/00 Q1019 TEMPO 32015G25KT
16:00
V
17 °C 10 km+ - 320° 320° 16 kt METAR LFCK 201400Z AUTO 32016KT 280V350 CAVOK 17/01 Q1019 TEMPO 32015G25KT
15:30
V
17 °C 10 km+ - 330° 330° 17 kt METAR LFCK 201330Z AUTO 33017KT CAVOK 17/00 Q1019 TEMPO 32015G25KT
15:00
V
17 °C 10 km+ - 330° 330° 14 kt METAR LFCK 201300Z AUTO 33014KT 290V010 CAVOK 17/02 Q1020 TEMPO 32015G25KT
14:30
V
17 °C 10 km+ - 320° 320° 14 kt METAR LFCK 201230Z AUTO 32014KT 290V010 CAVOK 17/03 Q1020 TEMPO 32015G25KT
14:00
V
16 °C 10 km+ - 320° 320° 15 kt METAR LFCK 201200Z AUTO 32015KT 280V350 CAVOK 16/03 Q1020 NOSIG
13:30
V
16 °C 10 km+ - 320° 320° 15 kt METAR LFCK 201130Z AUTO 32015KT 280V350 CAVOK 16/03 Q1020 NOSIG
13:00
V
15 °C 10 km+ - 310° 310° 16 kt METAR LFCK 201100Z AUTO 31016KT 270V330 9999 SCT044 SCT052 15/02 Q1020 NOSIG
12:30
V
14 °C 10 km+ 4.200 ft 330° 330° 14 kt METAR LFCK 201030Z AUTO 33014KT 290V350 9999 FEW036 BKN042 14/05 Q1020 NOSIG
12:00
V
14 °C 10 km+ - 330° 330° 11 kt METAR LFCK 201000Z AUTO 33011KT 290V010 9999 FEW033 14/06 Q1021 NOSIG
11:30
V
13 °C 10 km+ - 290° 290° 8 kt METAR LFCK 200930Z AUTO 29008KT 250V340 CAVOK 13/06 Q1021 NOSIG
11:00
V
11 °C 10 km+ - 310° 310° 8 kt METAR LFCK 200900Z AUTO 31008KT 280V350 CAVOK 11/05 Q1021 NOSIG
10:30
V
11 °C 10 km+ - 290° 290° 6 kt METAR LFCK 200830Z AUTO 29006KT 260V320 CAVOK 11/05 Q1021 NOSIG
10:00
V
10 °C 10 km+ - 310° 310° 6 kt METAR LFCK 200800Z AUTO 31006KT 280V350 CAVOK 10/04 Q1021 NOSIG
09:30
V
9 °C 10 km+ - 300° 300° 4 kt METAR LFCK 200730Z AUTO 30004KT 280V340 CAVOK 09/04 Q1021 NOSIG
09:00
V
8 °C 10 km+ - 300° 300° 4 kt METAR LFCK 200700Z AUTO 30004KT 280V340 CAVOK 08/03 Q1021 NOSIG
08:30
V
7 °C 10 km+ - 010° 010° 3 kt METAR LFCK 200630Z AUTO 01003KT 340V050 CAVOK 07/02 Q1021 NOSIG
08:00
V
5 °C 10 km+ - Var Var 3 kt METAR LFCK 200600Z AUTO VRB03KT CAVOK 05/02 Q1020 NOSIG
07:30
V
3 °C 10 km+ - 360° 360° 3 kt METAR LFCK 200530Z AUTO 36003KT 290V040 CAVOK 03/00 Q1020 NOSIG
07:00
V
2 °C 10 km+ - Var Var 2 kt METAR LFCK 200500Z AUTO VRB02KT CAVOK 02/00 Q1020
06:30
V
3 °C 10 km+ - Var Var 3 kt METAR LFCK 200430Z AUTO VRB03KT CAVOK 03/00 Q1020
06:00
V
3 °C 10 km+ - Var Var 3 kt METAR LFCK 200400Z AUTO VRB03KT CAVOK 03/00 Q1019
05:30
V
3 °C 10 km+ - 050° 050° 2 kt METAR LFCK 200330Z AUTO 05002KT CAVOK 03/00 Q1019
05:00
V
3 °C 10 km+ - 360° 360° 0 kt METAR LFCK 200300Z AUTO 00000KT CAVOK 03/01 Q1019
04:30
V
3 °C 10 km+ - Var Var 3 kt METAR LFCK 200230Z AUTO VRB03KT CAVOK 03/00 Q1019
04:00
V
4 °C 10 km+ - 020° 020° 3 kt METAR LFCK 200200Z AUTO 02003KT CAVOK 04/01 Q1019
03:30
V
4 °C 10 km+ - 020° 020° 4 kt METAR LFCK 200130Z AUTO 02004KT CAVOK 04/01 Q1019
03:00
V
5 °C 10 km+ - 020° 020° 1 kt METAR LFCK 200100Z AUTO 02001KT CAVOK 05/01 Q1019
02:30
V
4 °C 10 km+ - 040° 040° 2 kt METAR LFCK 200030Z AUTO 04002KT CAVOK 04/01 Q1020
02:00
V
5 °C 10 km+ - 360° 360° 0 kt METAR LFCK 200000Z AUTO 00000KT CAVOK 05/01 Q1020
01:30
V
5 °C 10 km+ - Var Var 2 kt METAR LFCK 192330Z AUTO VRB02KT CAVOK 05/01 Q1020
01:00
V
6 °C 10 km+ - Var Var 1 kt METAR LFCK 192300Z AUTO VRB01KT CAVOK 06/01 Q1020
00:30
V
7 °C 10 km+ - Var Var 2 kt METAR LFCK 192230Z AUTO VRB02KT CAVOK 07/01 Q1020
00:00
V
6 °C 10 km+ - 020° 020° 3 kt METAR LFCK 192200Z AUTO 02003KT CAVOK 06/01 Q1020

19. April 2024

Uhrzeit Code Wetter Temp. Sichtweite Wolkendecke Wind METAR/SPECI
23:30
V
7 °C 10 km+ - Var Var 3 kt METAR LFCK 192130Z AUTO VRB03KT CAVOK 07/01 Q1020
23:00
V
7 °C 10 km+ - 360° 360° 3 kt METAR LFCK 192100Z AUTO 36003KT 330V030 CAVOK 07/01 Q1020 NOSIG
22:30
V
9 °C 10 km+ - Var Var 3 kt METAR LFCK 192030Z AUTO VRB03KT CAVOK 09/00 Q1020 NOSIG
22:00
V
10 °C 10 km+ - Var Var 1 kt METAR LFCK 192000Z AUTO VRB01KT CAVOK 10/M00 Q1020 NOSIG
21:30
V
13 °C 10 km+ - 280° 280° 5 kt METAR LFCK 191930Z AUTO 28005KT CAVOK 13/M00 Q1019 NOSIG
21:00
V
14 °C 10 km+ - 280° 280° 7 kt METAR LFCK 191900Z AUTO 28007KT CAVOK 14/M01 Q1019 NOSIG
20:30
V
16 °C 10 km+ - 290° 290° 8 kt METAR LFCK 191830Z AUTO 29008KT CAVOK 16/M02 Q1019 NOSIG
20:00
V
17 °C 10 km+ - 290° 290° 8 kt METAR LFCK 191800Z AUTO 29008KT CAVOK 17/M01 Q1019 NOSIG
19:30
V
18 °C 10 km+ - 300° 300° 7 kt METAR LFCK 191730Z AUTO 30007KT CAVOK 18/00 Q1019 NOSIG
19:00
V
18 °C 10 km+ - 320° 320° 8 kt METAR LFCK 191700Z AUTO 32008KT CAVOK 18/M01 Q1019 NOSIG
18:30
V
18 °C 10 km+ - 310° 310° 7 kt METAR LFCK 191630Z AUTO 31007KT 270V340 CAVOK 18/M00 Q1019 NOSIG
18:00
V
18 °C 10 km+ - 330° 330° 8 kt METAR LFCK 191600Z AUTO 33008KT 290V350 CAVOK 18/00 Q1019 NOSIG
17:30
V
18 °C 10 km+ - 290° 290° 9 kt METAR LFCK 191530Z AUTO 29009KT 250V330 CAVOK 18/M01 Q1020 NOSIG
17:00
V
18 °C 10 km+ - 310° 310° 9 kt METAR LFCK 191500Z AUTO 31009KT CAVOK 18/M01 Q1020 NOSIG
16:30
V
18 °C 10 km+ - 320° 320° 9 kt METAR LFCK 191430Z AUTO 32009KT CAVOK 18/M01 Q1020 NOSIG
16:00
V
17 °C 10 km+ - 310° 310° 8 kt METAR LFCK 191400Z AUTO 31008KT 270V350 CAVOK 17/M03 Q1021 NOSIG
15:30
V
17 °C 10 km+ - 290° 290° 7 kt METAR LFCK 191330Z AUTO 29007KT 250V330 CAVOK 17/M05 Q1021 NOSIG
15:00
V
16 °C 10 km+ - 330° 330° 5 kt METAR LFCK 191300Z AUTO 33005KT 300V010 CAVOK 16/M03 Q1021 NOSIG
14:30
V
16 °C 10 km+ - 320° 320° 5 kt METAR LFCK 191230Z AUTO 32005KT 260V020 CAVOK 16/M02 Q1022 NOSIG
14:00
V
15 °C 10 km+ - 310° 310° 6 kt METAR LFCK 191200Z AUTO 31006KT 250V010 CAVOK 15/M00 Q1022 NOSIG
13:30
V
14 °C 10 km+ - 300° 300° 4 kt METAR LFCK 191130Z AUTO 30004KT 210V010 CAVOK 14/01 Q1023 NOSIG
13:00
V
14 °C 10 km+ - Var Var 5 kt METAR LFCK 191100Z AUTO VRB05KT CAVOK 14/00 Q1023 NOSIG
12:30
V
13 °C 10 km+ - 270° 270° 4 kt METAR LFCK 191030Z AUTO 27004KT 210V310 CAVOK 13/01 Q1024 NOSIG
12:00
V
12 °C 10 km+ - 310° 310° 4 kt METAR LFCK 191000Z AUTO 31004KT 230V350 CAVOK 12/01 Q1024 NOSIG
11:30
V
12 °C 10 km+ - Var Var 3 kt METAR LFCK 190930Z AUTO VRB03KT CAVOK 12/00 Q1024 NOSIG
11:00
V
11 °C 10 km+ - Var Var 2 kt METAR LFCK 190900Z AUTO VRB02KT CAVOK 11/M00 Q1024 NOSIG
10:30
V
10 °C 10 km+ - Var Var 2 kt METAR LFCK 190830Z AUTO VRB02KT CAVOK 10/01 Q1024 NOSIG
10:00
V
9 °C 10 km+ - Var Var 1 kt METAR LFCK 190800Z AUTO VRB01KT CAVOK 09/03 Q1024 NOSIG
09:30
V
6 °C 10 km+ - 360° 360° 0 kt METAR LFCK 190730Z AUTO 00000KT CAVOK 06/02 Q1025 NOSIG
09:00
V
5 °C 10 km+ - 360° 360° 0 kt METAR LFCK 190700Z AUTO 00000KT CAVOK 05/02 Q1025 NOSIG
08:30
V
4 °C 10 km+ - 360° 360° 0 kt METAR LFCK 190630Z AUTO 00000KT CAVOK 04/02 Q1025 NOSIG
08:00
V
2 °C 10 km+ - Var Var 2 kt METAR LFCK 190600Z AUTO VRB02KT CAVOK 02/01 Q1025 NOSIG
Eine Änderung melden